»·PEaware :: N1718G KUDD-KVNY

N1718G :: KUDD-KVNY

FLIGHT INFORMATION

Flight Status: Arrived
Operator: Privately registered:
United States
More flights under this callsign
Pilot: Spencer M. (27733)
Aircraft: AÉROSPATIALE TRINIDAD
(TRIN)
More flights by this aircraft type
Origin: KUDD Bermuda Dunes
United States
Destination: KVNY Van Nuys
United States
More flights between these airports :: More routes between these airports
Route: +
File this flight plan on PilotEdge
Remarks: MYFLIGHTROUTE Alphabet Challenge ZLA
Altitude:
(Current/Filed)
8,500ft
Speed:
(Current/Filed)
140kts
Departed: 24-Apr-20 08:34 PM
Arrived: 24-Apr-20 09:38 PM
Distance/Time
Traveled:
113nm/1:04
Distance/Time
To Go:
Arrived

Flight Plot

Page will automatically refresh every two minutes.


Map Options




Map Legend


Flown Route
Filed Route
Departure Airport
Arrival Airport
Navaid (VOR, NDB)
Fix

Horizontal Profiles

Position Reports

Time Latitude Longitude Heading Altitude Ground
Speed
24-Apr-20 20:23 33.744775 -116.269741 270 56ft 0kts
24-Apr-20 20:24 33.745015 -116.269918 351 56ft 1kts
24-Apr-20 20:25 33.745642 -116.269957 359 56ft 1kts
24-Apr-20 20:26 33.747048 -116.272745 296 58ft 12kts
24-Apr-20 20:27 33.748324 -116.275800 297 62ft 5kts
24-Apr-20 20:28 33.749588 -116.278989 296 70ft 9kts
24-Apr-20 20:29 33.750535 -116.281366 295 73ft 8kts
24-Apr-20 20:30 33.751024 -116.282351 352 75ft 0kts
24-Apr-20 20:31 33.751024 -116.282351 352 75ft 0kts
24-Apr-20 20:32 33.751284 -116.282248 40 75ft 5kts
24-Apr-20 20:33 33.744767 -116.264589 110 380ft 95kts
24-Apr-20 20:34 33.736838 -116.234788 102 1252ft 93kts
24-Apr-20 20:35 33.736775 -116.205193 57 2020ft 90kts
24-Apr-20 20:36 33.759321 -116.202400 330 2773ft 95kts
24-Apr-20 20:37 33.767273 -116.229886 279 3559ft 94kts
24-Apr-20 20:38 33.773004 -116.260790 293 4328ft 96kts
24-Apr-20 20:39 33.782038 -116.290102 297 5099ft 95kts
24-Apr-20 20:40 33.792398 -116.319301 298 5828ft 94kts
24-Apr-20 20:41 33.802921 -116.347751 299 6527ft 92kts
24-Apr-20 20:42 33.813720 -116.376449 298 7120ft 95kts
24-Apr-20 20:43 33.824496 -116.404993 298 7690ft 92kts
24-Apr-20 20:44 33.835141 -116.432939 298 8208ft 91kts
24-Apr-20 20:45 33.846228 -116.462062 298 8504ft 109kts
24-Apr-20 20:46 33.860154 -116.498570 298 8499ft 125kts
24-Apr-20 20:47 33.874761 -116.537327 297 8498ft 128kts
24-Apr-20 20:48 33.889263 -116.576423 297 8498ft 128kts
24-Apr-20 20:49 33.903927 -116.615689 296 8497ft 128kts
24-Apr-20 20:50 33.911530 -116.658211 283 8503ft 129kts
24-Apr-20 20:51 33.917611 -116.700923 282 8518ft 129kts
24-Apr-20 20:52 33.923411 -116.743586 282 8532ft 128kts
24-Apr-20 20:53 33.929120 -116.786128 281 8546ft 128kts
24-Apr-20 20:54 33.934775 -116.828515 281 8559ft 128kts
24-Apr-20 20:55 33.940392 -116.870609 281 8572ft 127kts
24-Apr-20 20:56 33.945960 -116.912646 281 8575ft 127kts
24-Apr-20 20:57 33.951550 -116.954923 281 8572ft 127kts
24-Apr-20 20:59 33.957121 -116.997126 282 8569ft 127kts
24-Apr-20 21:00 33.962696 -117.039471 282 8567ft 128kts
24-Apr-20 21:01 33.968246 -117.081739 283 8564ft 128kts
24-Apr-20 21:02 33.973819 -117.124301 283 8562ft 128kts
24-Apr-20 21:03 33.979399 -117.166956 283 8557ft 128kts
24-Apr-20 21:04 33.984948 -117.209567 283 8552ft 128kts
24-Apr-20 21:05 33.990472 -117.252104 283 8548ft 128kts
24-Apr-20 21:06 33.996324 -117.296993 282 8149ft 143kts
24-Apr-20 21:07 34.002471 -117.344617 282 7672ft 144kts
24-Apr-20 21:08 34.008600 -117.392339 282 7205ft 143kts
24-Apr-20 21:09 34.014682 -117.439829 282 6746ft 143kts
24-Apr-20 21:10 34.019576 -117.486721 281 6536ft 134kts
24-Apr-20 21:11 34.024940 -117.530773 282 6519ft 131kts
24-Apr-20 21:12 34.030470 -117.574550 281 6536ft 133kts
24-Apr-20 21:13 34.036063 -117.618946 281 6532ft 133kts
24-Apr-20 21:14 34.041651 -117.663424 281 6535ft 134kts
24-Apr-20 21:15 34.047247 -117.708079 281 6537ft 135kts
24-Apr-20 21:16 34.052842 -117.752875 281 6540ft 135kts
24-Apr-20 21:16 34.057539 -117.790581 281 6543ft 136kts
24-Apr-20 21:18 34.064124 -117.843613 280 6548ft 137kts
24-Apr-20 21:18 34.068835 -117.881702 280 6542ft 137kts
24-Apr-20 21:19 34.074477 -117.927415 281 6533ft 137kts
24-Apr-20 21:21 34.081442 -117.983905 280 5815ft 148kts
24-Apr-20 21:21 34.086445 -118.024736 280 5260ft 145kts
24-Apr-20 21:22 34.097208 -118.069169 289 4560ft 135kts
24-Apr-20 21:23 34.107844 -118.108088 289 4507ft 113kts
24-Apr-20 21:24 34.117933 -118.146376 284 4537ft 123kts
24-Apr-20 21:25 34.123570 -118.186705 281 4255ft 121kts
24-Apr-20 21:26 34.133524 -118.225088 303 4007ft 119kts
24-Apr-20 21:27 34.151081 -118.259247 302 3977ft 120kts
24-Apr-20 21:28 34.168292 -118.293576 303 4042ft 120kts
24-Apr-20 21:29 34.185815 -118.327588 304 4013ft 120kts
24-Apr-20 21:30 34.203317 -118.361597 302 3607ft 119kts
24-Apr-20 21:31 34.220602 -118.394042 304 3184ft 95kts
24-Apr-20 21:32 34.231319 -118.414413 297 2626ft 62kts
24-Apr-20 21:33 34.234462 -118.435146 278 2062ft 63kts
24-Apr-20 21:34 34.235933 -118.456402 277 1624ft 63kts
24-Apr-20 21:35 34.233697 -118.477496 248 1331ft 64kts
24-Apr-20 21:36 34.219394 -118.489916 181 859ft 72kts
24-Apr-20 21:37 34.210267 -118.488529 118 805ft 5kts
24-Apr-20 21:38 34.208638 -118.487914 80 805ft 6kts
24-Apr-20 21:39 34.208742 -118.487231 173 805ft 0kts

Navigation Log

Ident Type
Flight plan parsing failed, navigation log unavailable